LICA/SUF METAR and TAF weather

Enter ICAO airport designator
Station Type Date Time Source
LICA METAR 2018/12/13 08:50 UTC NOAA

LICA 130850Z 07008KT 9000 FEW020 BKN035 11/09 Q1014


Station Type Date Time Source
LICA Decoded METAR 2018/12/13 08:50 UTC NOAA

Lamezia Terme, Italy (LICA) 38-54N 016-15E
Dec 13, 2018 - 03:50 AM EST / 2018.12.13 0850 UTC
Wind: from the ENE (070 degrees) at 9 MPH (8 KT):0
Visibility: 5 mile(s):0
Sky conditions: mostly cloudy
Temperature: 51 F (11 C)
Dew Point: 48 F (9 C)
Relative Humidity: 87%
Pressure (altimeter): 29.94 in. Hg (1014 hPa)
ob: LICA 130850Z 07008KT 9000 FEW020 BKN035 11/09 Q1014
cycle: 9

Station Type Date Time Source
LICA TAF 2018/12/13 06:21 UTC NOAA

TAF LICA 130500Z 1306/1406 08010KT 9999 SCT030
TEMPO 1306/1310 SHRA
BECMG 1309/1311 27010KT
BECMG 1318/1320 08010KT
TEMPO 1318/1324 SHRA


Example: see airport list